Lance Creek, WY (82222)

7:14 AM MDT on August 28, 2014 (GMT -0600)
Converse County | Change Station
CLOSE
Current Station
Airport
Location: Douglas,
Elevation: 4928 ft
Nearby Weather Stations

Elev 4928 ft 42.80 °N, 105.38 °W | Updated 21 minutes ago

Overcast
Overcast
58 °F
Feels Like 58 °F
N
9
Wind Variable Wind from NW

Today
High -- | Low -- °F
--% Chance of Precip.
Yesterday
High -- | Low -- °F
Precip. -- in
6:18 AM 7:40 PM
Waxing Crescent, 8% visible
Pressure 29.99 in
Visibility 10.0 miles
Clouds Mostly Cloudy 9500 ft
Overcast 11000 ft
Dew Point 54 °F
Humidity 87%
Rainfall 0.00 in
Snow Depth Not available.
UV 0 out of 12
Pollen 7.80 out of 12
Air Quality Not available.
Flu Activity Not available.
METAR KDGW 281253Z AUTO 32008KT 10SM BKN095 OVC110 14/12 A3012 RMK AO2 SLP156 T01440122

More Conditions Fewer Conditions

Pressure 29.99 in
Visibility 10.0 miles
Clouds Mostly Cloudy 9500 ft
Overcast 11000 ft
Dew Point 54 °F
Humidity 87%
Rainfall 0.00 in
Snow Depth Not available.
UV 0 out of 12
Pollen 7.80 out of 12
Air Quality Not available.
Flu Activity Not available.
METAR KDGW 281253Z AUTO 32008KT 10SM BKN095 OVC110 14/12 A3012 RMK AO2 SLP156 T01440122

More Conditions Fewer Conditions

Nowcast | as of 4:58 am MDT on August 28, 2014

Through 7 am...scattered showers will develop north through west of a line from Chadron to Laramie and move to the southwest. Rainfall amounts will be light. In addition...patchy fog will form over much of the area with visibilities lowering to 3 to 5 miles.

×

10-Day Weather Forecast

Almanac

Astronomy

Aug. 28, 2014 Rise Set
Actual Time 6:18 AM MDT 7:40 PM MDT
Civil Twilight 5:48 AM MDT 8:09 PM MDT
Nautical Twilight 5:13 AM MDT 8:45 PM MDT
Astronomical Twilight 4:35 AM MDT 9:22 PM MDT
Moon 9:18 AM MDT 8:58 PM MDT
Length of Visible Light 14h 20m
Length of Day
13h 21m
Tomorrow will be 2m 48s shorter.
Waxing Crescent, 8% of the Moon is Illuminated
Today
Waxing Crescent
Sep 2
First Quarter
Sep 8
Full
Sep 15
Last Quarter
Sep 24
New

Today's Extremes

State Highs State Lows

Community

WunderPhotos

Upload Photos

1,747,947 photos uploaded!

Nearby

Snow Depth

Station Depth Elevation
Reno Hill 0 in 8500 ft
Cole Canyon 0 in 5910 ft
Casper Mountain 1 in 7850 ft
Bear Trap Meadow 0 in 8200 ft
Middle Powder 0 in 7760 ft

Earthquake Activity

City Distance Mag. Time & Date
No recent earthquake activity has been reported nearby.
Minimum magnitude displayed is 2.5.

Coastal Water Temperatures

Place Temperature
No Stations Reporting

Nearby Weather Stations